PORTS® Data Listing: 8720218 Mayport (Bar Pilots Dock), FL

CO-OPS RAW PORTS DATA

************************      PRELIMINARY DATA      ************************** 

     THIS RAW DATA HAS NOT BEEN SUBJECT TO THE NATIONAL OCEAN SERVICE'S        
     QUALITY CONTROL OR QUALITY ASSURANCE PROCEDURES AND DOES NOT MEET         
     THE CRITERIA AND STANDARDS OF OFFICIAL NATIONAL OCEAN SERVICE             
     DATA.  IT IS RELEASED FOR LIMITED PUBLIC USE AS PRELIMINARY DATA TO       
     BE USED ONLY WITH APPROPRIATE CAUTION.                                    

************************      PRELIMINARY DATA      ************************** 


       CD   -   Calendar date
       T    -   Time
       TZ   -   Timezone
       PW   -   Predicted water level (feet above MLLW)
       OW   -   Observed water level (feet above MLLW)
       WS   -   Wind speed (knots)
       WD   -   Wind direction (degrees true)
       WG   -   Wind gust (knots)
       AT   -   Air temperature (degrees farenheit)
       WT   -   Water temperature (degrees farenheit)
       AP   -   Air pressure (millibars)
       SA   -   Salinty (PSU - Practical Salinity Units)
       SG   -   Specific gravity
       RH   -   Relative humidity
       AG   -   Air gap (feet)
       VI   -   Visibility (nautical miles)

       ** NOTE **
       A variable that has its data fields filled with "9"s, indicates that
       data was not collected for that sample period.
       **********


STATION NAME: Mayport Bar Pilots Dock (8720218)
****************************************************************************************************
    CD       T    TZ    PW     OW    WS   WD   WG    AT    WT    AP    SA    SG     RH    AG   VI
****************************************************************************************************
2020/01/18 06:12 EST    1.67   3.01    4  133    7  64.4  62.2 1029.1 -9.9 -9.999 -99.9 -99.99 -9.99
2020/01/18 06:18 EST    1.56   2.85    5  136    8  64.4  62.2 1029.1 -9.9 -9.999 -99.9 -99.99 -9.99
2020/01/18 06:24 EST    1.45   2.74    5  138    8  64.4  62.2 1029.1 -9.9 -9.999 -99.9 -99.99 -9.99
2020/01/18 06:30 EST    1.34   2.63    4  131    7  64.0  62.2 1029.1 -9.9 -9.999 -99.9 -99.99 -9.99
2020/01/18 06:36 EST    1.23   2.53    4  130    6  64.0  62.2 1029.1 -9.9 -9.999 -99.9 -99.99 -9.99
2020/01/18 06:42 EST    1.13   2.40    5  129    7  63.9  62.2 1029.1 -9.9 -9.999 -99.9 -99.99 -9.99
2020/01/18 06:48 EST    1.03   2.34    5  129    8  64.0  62.4 1029.1 -9.9 -9.999 -99.9 -99.99 -9.99
2020/01/18 06:54 EST    0.94   2.19    6  128    8  64.0  62.4 1029.1 -9.9 -9.999 -99.9 -99.99 -9.99
2020/01/18 07:00 EST    0.84   2.05    5  130    8  64.0  62.4 1029.1 -9.9 -9.999 -99.9 -99.99 -9.99
2020/01/18 07:06 EST    0.76   1.95    5  128   10  64.4  62.4 1029.1 -9.9 -9.999 -99.9 -99.99 -9.99
2020/01/18 07:12 EST    0.67   1.85    8  125   11  65.1  62.4 1029.1 -9.9 -9.999 -99.9 -99.99 -9.99
2020/01/18 07:18 EST    0.59   1.77    7  125   11  65.3  62.4 1029.2 -9.9 -9.999 -99.9 -99.99 -9.99
2020/01/18 07:24 EST    0.51   1.69    7  128   10  65.3  62.4 1029.2 -9.9 -9.999 -99.9 -99.99 -9.99
2020/01/18 07:30 EST    0.44   1.60    9  127   11  65.5  62.6 1029.2 -9.9 -9.999 -99.9 -99.99 -9.99
2020/01/18 07:36 EST    0.37   1.55    7  128   10  65.5  62.6 1029.3 -9.9 -9.999 -99.9 -99.99 -9.99
2020/01/18 07:42 EST    0.30   1.47    7  126   10  65.3  62.6 1029.3 -9.9 -9.999 -99.9 -99.99 -9.99
2020/01/18 07:48 EST    0.24   1.37    7  127   11  65.3  62.6 1029.3 -9.9 -9.999 -99.9 -99.99 -9.99
2020/01/18 07:54 EST    0.19   1.29    6  126   11  65.3  62.6 1029.3 -9.9 -9.999 -99.9 -99.99 -9.99
2020/01/18 08:00 EST    0.14   1.17    6  129   10  65.5  62.6 1029.4 -9.9 -9.999 -99.9 -99.99 -9.99
2020/01/18 08:06 EST    0.09   1.10    8  127    9  65.5  62.6 1029.4 -9.9 -9.999 -99.9 -99.99 -9.99
2020/01/18 08:12 EST    0.05   1.01    6  130    9  65.5  62.6 1029.5 -9.9 -9.999 -99.9 -99.99 -9.99
2020/01/18 08:18 EST    0.02   0.95    8  123   11  65.5  62.6 1029.4 -9.9 -9.999 -99.9 -99.99 -9.99
2020/01/18 08:24 EST   -0.01   0.92    7  123   11  65.7  62.6 1029.4 -9.9 -9.999 -99.9 -99.99 -9.99
2020/01/18 08:30 EST   -0.04   0.80    7  121   10  65.7  62.6 1029.4 -9.9 -9.999 -99.9 -99.99 -9.99
2020/01/18 08:36 EST   -0.05   0.88    7  123   10  65.8  62.6 1029.4 -9.9 -9.999 -99.9 -99.99 -9.99
2020/01/18 08:42 EST   -0.06   0.84    7  125   11  66.0  62.6 1029.4 -9.9 -9.999 -99.9 -99.99 -9.99
2020/01/18 08:48 EST   -0.07   0.80    7  126   10  66.2  62.6 1029.5 -9.9 -9.999 -99.9 -99.99 -9.99
2020/01/18 08:54 EST   -0.07   0.81    8  121   10  66.2  62.6 1029.4 -9.9 -9.999 -99.9 -99.99 -9.99
2020/01/18 09:00 EST   -0.06   0.83    6  123   11  66.4  62.6 1029.4 -9.9 -9.999 -99.9 -99.99 -9.99
2020/01/18 09:06 EST   -0.05   0.85    5  120   10  66.4  62.8 1029.4 -9.9 -9.999 -99.9 -99.99 -9.99
2020/01/18 09:12 EST   -0.03   0.87    6  124   10  66.7  62.8 1029.5 -9.9 -9.999 -99.9 -99.99 -9.99
2020/01/18 09:18 EST    0.00   0.89    7  123   11  66.9  62.8 1029.5 -9.9 -9.999 -99.9 -99.99 -9.99
2020/01/18 09:24 EST    0.03   0.91    7  121   10  67.3  62.8 1029.5 -9.9 -9.999 -99.9 -99.99 -9.99
2020/01/18 09:30 EST    0.07   0.97    5  121   11  67.1  62.8 1029.6 -9.9 -9.999 -99.9 -99.99 -9.99
2020/01/18 09:36 EST    0.12   1.00    7  125   11  67.1  62.8 1029.6 -9.9 -9.999 -99.9 -99.99 -9.99
2020/01/18 09:42 EST    0.17   1.04   10  127   15  67.3  62.8 1029.5 -9.9 -9.999 -99.9 -99.99 -9.99
2020/01/18 09:48 EST    0.22   1.07    9  124   15  67.1  62.8 1029.6 -9.9 -9.999 -99.9 -99.99 -9.99
2020/01/18 09:54 EST    0.29   1.08    7  120   11  67.5  63.0 1029.6 -9.9 -9.999 -99.9 -99.99 -9.99
2020/01/18 10:00 EST    0.35   1.13    8  128   14  67.5  63.0 1029.6 -9.9 -9.999 -99.9 -99.99 -9.99
2020/01/18 10:06 EST    0.42   1.21   10  121   12  67.8  63.0 1029.6 -9.9 -9.999 -99.9 -99.99 -9.99
2020/01/18 10:12 EST    0.50   1.29    9  125   13  68.2  63.0 1029.7 -9.9 -9.999 -99.9 -99.99 -9.99
2020/01/18 10:18 EST    0.58   1.37    9  125   12  68.4  63.0 1029.5 -9.9 -9.999 -99.9 -99.99 -9.99
2020/01/18 10:24 EST    0.66   1.44    9  128   15  68.4  63.0 1029.5 -9.9 -9.999 -99.9 -99.99 -9.99
2020/01/18 10:30 EST    0.75   1.55    9  127   14  68.7  63.1 1029.5 -9.9 -9.999 -99.9 -99.99 -9.99
2020/01/18 10:36 EST    0.84   1.65   10  134   14  68.5  63.1 1029.5 -9.9 -9.999 -99.9 -99.99 -9.99
2020/01/18 10:42 EST    0.93   1.73   10  131   16  68.9  63.1 1029.5 -9.9 -9.999 -99.9 -99.99 -9.99
2020/01/18 10:48 EST    1.02   1.83    9  129   14  68.9  63.1 1029.4 -9.9 -9.999 -99.9 -99.99 -9.99
2020/01/18 10:54 EST    1.12   1.92    9  134   14  68.9  63.1 1029.4 -9.9 -9.999 -99.9 -99.99 -9.99
2020/01/18 11:00 EST    1.21   2.09    8  127   13  68.9  63.1 1029.4 -9.9 -9.999 -99.9 -99.99 -9.99
2020/01/18 11:06 EST    1.31   2.01    9  131   13  69.1  63.1 1029.3 -9.9 -9.999 -99.9 -99.99 -9.99
2020/01/18 11:12 EST    1.41   2.20    7  129   12  69.4  63.1 1029.3 -9.9 -9.999 -99.9 -99.99 -9.99
2020/01/18 11:18 EST    1.51   2.34    8  142   11  69.3  63.1 1029.3 -9.9 -9.999 -99.9 -99.99 -9.99
2020/01/18 11:24 EST    1.61   2.43    9  138   11  69.1  63.3 1029.2 -9.9 -9.999 -99.9 -99.99 -9.99
2020/01/18 11:30 EST    1.71   2.48    9  119   14  69.3  63.3 1029.1 -9.9 -9.999 -99.9 -99.99 -9.99
2020/01/18 11:36 EST    1.81   2.58    8  128   12  69.3  63.3 1029.0 -9.9 -9.999 -99.9 -99.99 -9.99
2020/01/18 11:42 EST    1.91   2.67    8  129   11  69.1  63.3 1028.9 -9.9 -9.999 -99.9 -99.99 -9.99
2020/01/18 11:48 EST    2.01   2.80    8  142   12  69.1  63.3 1028.8 -9.9 -9.999 -99.9 -99.99 -9.99
2020/01/18 11:54 EST    2.10   2.94    8  140   11  69.4  63.3 1028.8 -9.9 -9.999 -99.9 -99.99 -9.99
2020/01/18 12:00 EST    2.20   3.01    7  139   11  69.6  63.5 1028.7 -9.9 -9.999 -99.9 -99.99 -9.99
2020/01/18 12:06 EST    2.30   3.10    7  149   11  69.6  63.5 1028.6 -9.9 -9.999 -99.9 -99.99 -9.99
2020/01/18 12:12 EST    2.39   3.22    7  141   11  69.4  63.5 1028.5 -9.9 -9.999 -99.9 -99.99 -9.99
2020/01/18 12:18 EST    2.48   3.27    8  124   12  70.2  63.5 1028.3 -9.9 -9.999 -99.9 -99.99 -9.99
2020/01/18 12:24 EST    2.58   3.42    7  148   13  69.6  63.5 1028.3 -9.9 -9.999 -99.9 -99.99 -9.99
2020/01/18 12:30 EST    2.67   3.53    8  141   12  69.6  63.3 1028.1 -9.9 -9.999 -99.9 -99.99 -9.99
2020/01/18 12:36 EST    2.75   3.61    9  138   13  69.4  63.5 1028.0 -9.9 -9.999 -99.9 -99.99 -9.99
2020/01/18 12:42 EST    2.84   3.73    9  144   12  69.4  63.5 1027.9 -9.9 -9.999 -99.9 -99.99 -9.99
2020/01/18 12:48 EST    2.92   3.79    8  138   11  69.8  63.5 1027.7 -9.9 -9.999 -99.9 -99.99 -9.99
2020/01/18 12:54 EST    3.00   3.90    6  137   11  70.7  63.5 1027.6 -9.9 -9.999 -99.9 -99.99 -9.99
2020/01/18 13:00 EST    3.08   3.99    8  152   12  70.5  63.5 1027.4 -9.9 -9.999 -99.9 -99.99 -9.99
2020/01/18 13:06 EST    3.16   4.07    7  162   13  71.1  63.5 1027.2 -9.9 -9.999 -99.9 -99.99 -9.99
2020/01/18 13:12 EST    3.23   4.16    8  154   11  70.9  63.1 1027.1 -9.9 -9.999 -99.9 -99.99 -9.99
2020/01/18 13:18 EST    3.31   4.25    8  142   12  70.7  63.0 1026.9 -9.9 -9.999 -99.9 -99.99 -9.99
2020/01/18 13:24 EST    3.37   4.32    9  134   14  70.9  63.0 1026.8 -9.9 -9.999 -99.9 -99.99 -9.99
2020/01/18 13:30 EST    3.44   4.41    8  144   14  70.7  63.0 1026.7 -9.9 -9.999 -99.9 -99.99 -9.99
2020/01/18 13:36 EST    3.50   4.47    7  141   14  70.7  63.0 1026.6 -9.9 -9.999 -99.9 -99.99 -9.99
2020/01/18 13:42 EST    3.56   4.53    8  138   14  70.7  62.8 1026.5 -9.9 -9.999 -99.9 -99.99 -9.99
2020/01/18 13:48 EST    3.61   4.58    8  143   12  70.5  62.8 1026.4 -9.9 -9.999 -99.9 -99.99 -9.99
2020/01/18 13:54 EST    3.67   4.61    9  148   12  70.3  62.8 1026.4 -9.9 -9.999 -99.9 -99.99 -9.99
2020/01/18 14:00 EST    3.71   4.67    9  145   12  70.2  62.6 1026.3 -9.9 -9.999 -99.9 -99.99 -9.99
2020/01/18 14:06 EST    3.76   4.72    7  131   12  70.7  62.8 1026.1 -9.9 -9.999 -99.9 -99.99 -9.99
2020/01/18 14:12 EST    3.80   4.76    8  138   12  70.9  62.8 1025.9 -9.9 -9.999 -99.9 -99.99 -9.99
2020/01/18 14:18 EST    3.84   4.77   10  138   13  70.3  62.8 1025.8 -9.9 -9.999 -99.9 -99.99 -9.99
2020/01/18 14:24 EST    3.87   4.79    9  131   13  70.5  62.6 1025.7 -9.9 -9.999 -99.9 -99.99 -9.99
2020/01/18 14:30 EST    3.90   4.82    9  129   13  70.5  62.6 1025.6 -9.9 -9.999 -99.9 -99.99 -9.99
2020/01/18 14:36 EST    3.92   4.87    7  130   14  70.9  62.6 1025.6 -9.9 -9.999 -99.9 -99.99 -9.99
2020/01/18 14:42 EST    3.94   4.87    8  132   11  70.3  62.8 1025.6 -9.9 -9.999 -99.9 -99.99 -9.99
2020/01/18 14:48 EST    3.96   4.87    8  126   11  70.5  62.8 1025.5 -9.9 -9.999 -99.9 -99.99 -9.99
2020/01/18 14:54 EST    3.97   4.88    7  139   11  70.7  62.8 1025.5 -9.9 -9.999 -99.9 -99.99 -9.99
2020/01/18 15:00 EST    3.98   4.88    8  146   13  70.2  63.0 1025.5 -9.9 -9.999 -99.9 -99.99 -9.99
2020/01/18 15:06 EST    3.98   4.93    5  133    9  70.7  63.0 1025.4 -9.9 -9.999 -99.9 -99.99 -9.99
2020/01/18 15:12 EST    3.97   4.85    8  135   13  70.7  63.0 1025.4 -9.9 -9.999 -99.9 -99.99 -9.99
2020/01/18 15:18 EST    3.97   4.84    6  138   14  70.3  63.0 1025.4 -9.9 -9.999 -99.9 -99.99 -9.99
2020/01/18 15:24 EST    3.95   4.85    8  136   11  70.3  63.0 1025.3 -9.9 -9.999 -99.9 -99.99 -9.99
2020/01/18 15:30 EST    3.94   4.84    7  142   11  70.2  63.0 1025.3 -9.9 -9.999 -99.9 -99.99 -9.99
2020/01/18 15:36 EST    3.91   4.80    7  142   10  70.0  63.0 1025.3 -9.9 -9.999 -99.9 -99.99 -9.99
2020/01/18 15:42 EST    3.88   4.77   10  140   12  69.6  63.0 1025.2 -9.9 -9.999 -99.9 -99.99 -9.99
2020/01/18 15:48 EST    3.85   4.73    6  141   11  69.8  63.0 1025.1 -9.9 -9.999 -99.9 -99.99 -9.99
2020/01/18 15:54 EST    3.81   4.66    6  141   11  69.4  63.0 1025.2 -9.9 -9.999 -99.9 -99.99 -9.99
2020/01/18 16:00 EST    3.77   4.59    8  143   11  69.1  63.0 1025.2 -9.9 -9.999 -99.9 -99.99 -9.99
2020/01/18 16:06 EST    3.71   4.53    8  141   14  68.7  63.0 1025.2 -9.9 -9.999 -99.9 -99.99 -9.99
2020/01/18 16:12 EST    3.66   4.51    8  149   12  68.7  63.0 1025.0 -9.9 -9.999 -99.9 -99.99 -9.99
2020/01/18 16:18 EST    3.59   4.47    9  144   15  68.7  63.0 1024.9 -9.9 -9.999 -99.9 -99.99 -9.99
2020/01/18 16:24 EST    3.53   4.40    7  156   12  68.5  63.0 1024.8 -9.9 -9.999 -99.9 -99.99 -9.99
2020/01/18 16:30 EST    3.45   4.27    5  148   12  68.4  63.0 1024.8 -9.9 -9.999 -99.9 -99.99 -9.99
2020/01/18 16:36 EST    3.37   4.13    5  154   12  68.2  63.0 1024.9 -9.9 -9.999 -99.9 -99.99 -9.99
2020/01/18 16:42 EST    3.29   4.07    6  151    9  68.0  63.0 1024.7 -9.9 -9.999 -99.9 -99.99 -9.99
2020/01/18 16:48 EST    3.20   4.00    6  148   13  68.2  63.0 1024.6 -9.9 -9.999 -99.9 -99.99 -9.99
2020/01/18 16:54 EST    3.10   3.82    7  143   11  67.8  63.0 1024.6 -9.9 -9.999 -99.9 -99.99 -9.99
2020/01/18 17:00 EST    3.00   3.76    7  140   12  67.6  63.0 1024.6 -9.9 -9.999 -99.9 -99.99 -9.99
2020/01/18 17:06 EST    2.90   3.67    8  142   10  67.5  63.0 1024.7 -9.9 -9.999 -99.9 -99.99 -9.99
2020/01/18 17:12 EST    2.79   3.59    7  141    9  67.3  63.0 1024.7 -9.9 -9.999 -99.9 -99.99 -9.99
2020/01/18 17:18 EST    2.68   3.51    5  132    9  67.3  63.1 1024.7 -9.9 -9.999 -99.9 -99.99 -9.99
2020/01/18 17:24 EST    2.57   3.41    6  132   10  67.3  63.1 1024.7 -9.9 -9.999 -99.9 -99.99 -9.99
2020/01/18 17:30 EST    2.45   3.32    5  135    9  67.3  63.1 1024.6 -9.9 -9.999 -99.9 -99.99 -9.99
2020/01/18 17:36 EST    2.33   3.20    5  139    9  66.9  63.1 1024.5 -9.9 -9.999 -99.9 -99.99 -9.99
2020/01/18 17:42 EST    2.21   3.06    5  145    8  66.7  63.1 1024.4 -9.9 -9.999 -99.9 -99.99 -9.99
2020/01/18 17:48 EST    2.09   2.95    5  156    9  66.6  63.1 1024.3 -9.9 -9.999 -99.9 -99.99 -9.99
2020/01/18 17:54 EST    1.97   2.81    5  157   11  66.4  63.1 1024.3 -9.9 -9.999 -99.9 -99.99 -9.99
2020/01/18 18:00 EST    1.85   2.67    4  156    9  66.2  63.0 1024.2 -9.9 -9.999 -99.9 -99.99 -9.99
2020/01/18 18:06 EST    1.73   2.57    6  159   10  66.2  63.0 1024.1 -9.9 -9.999 -99.9 -99.99 -9.99
2020/01/18 18:12 EST    1.61   2.46    6  152    9  66.0  63.0 1024.0 -9.9 -9.999 -99.9 -99.99 -9.99
2020/01/18 18:18 EST    1.49   2.35    6  160    9  66.0  63.0 1023.9 -9.9 -9.999 -99.9 -99.99 -9.99
2020/01/18 18:24 EST    1.37   2.26    4  159    9  66.0  63.1 1023.8 -9.9 -9.999 -99.9 -99.99 -9.99
2020/01/18 18:30 EST    1.25   2.16    5  150   11  66.0  63.1 1023.8 -9.9 -9.999 -99.9 -99.99 -9.99
2020/01/18 18:36 EST    1.14   2.07    6  154   11  66.2  63.3 1023.8 -9.9 -9.999 -99.9 -99.99 -9.99
2020/01/18 18:42 EST    1.03   1.97    4  150   11  66.2  63.3 1023.7 -9.9 -9.999 -99.9 -99.99 -9.99
2020/01/18 18:48 EST    0.92   1.87    7  150   12  66.2  63.3 1023.5 -9.9 -9.999 -99.9 -99.99 -9.99
2020/01/18 18:54 EST    0.81   1.77    5  159   10  66.2  63.3 1023.6 -9.9 -9.999 -99.9 -99.99 -9.99
2020/01/18 19:00 EST    0.71   1.64    6  156   10  66.4  63.3 1023.6 -9.9 -9.999 -99.9 -99.99 -9.99
2020/01/18 19:06 EST    0.61   1.51    5  159    8  66.2  63.3 1023.7 -9.9 -9.999 -99.9 -99.99 -9.99
2020/01/18 19:12 EST    0.52   1.40    6  164   10  66.2  63.3 1023.6 -9.9 -9.999 -99.9 -99.99 -9.99
2020/01/18 19:18 EST    0.43   1.29    5  157    9  66.2  63.3 1023.5 -9.9 -9.999 -99.9 -99.99 -9.99
2020/01/18 19:24 EST    0.34   1.20    6  166   10  66.4  63.3 1023.6 -9.9 -9.999 -99.9 -99.99 -9.99
2020/01/18 19:30 EST    0.26   1.13    5  168   11  66.4  63.3 1023.7 -9.9 -9.999 -99.9 -99.99 -9.99
2020/01/18 19:36 EST    0.18   1.06    5  171    8  66.4  63.5 1023.8 -9.9 -9.999 -99.9 -99.99 -9.99
2020/01/18 19:42 EST    0.11   0.98    5  172    8  66.4  63.5 1023.8 -9.9 -9.999 -99.9 -99.99 -9.99
2020/01/18 19:48 EST    0.04   0.89    5  164   10  66.6  63.5 1023.6 -9.9 -9.999 -99.9 -99.99 -9.99
2020/01/18 19:54 EST   -0.03   0.79    5  170    8  66.4  63.5 1023.6 -9.9 -9.999 -99.9 -99.99 -9.99
2020/01/18 20:00 EST   -0.09   0.72    8  173   11  66.6  63.5 1023.5 -9.9 -9.999 -99.9 -99.99 -9.99
2020/01/18 20:06 EST   -0.15   0.67    6  172   10  66.6  63.5 1023.5 -9.9 -9.999 -99.9 -99.99 -9.99
2020/01/18 20:12 EST   -0.20   0.62    6  173    9  66.6  63.5 1023.4 -9.9 -9.999 -99.9 -99.99 -9.99
2020/01/18 20:18 EST   -0.24   0.53    6  178    9  66.6  63.5 1023.4 -9.9 -9.999 -99.9 -99.99 -9.99
2020/01/18 20:24 EST   -0.28   0.44    8  175   11  66.9  63.5 1023.3 -9.9 -9.999 -99.9 -99.99 -9.99
2020/01/18 20:30 EST   -0.32   0.39    7  171   10  66.9  63.5 1023.2 -9.9 -9.999 -99.9 -99.99 -9.99
2020/01/18 20:36 EST   -0.35   0.36    7  181   11  66.9  63.5 1023.2 -9.9 -9.999 -99.9 -99.99 -9.99
2020/01/18 20:42 EST   -0.38   0.34    8  179   13  67.1  63.5 1023.2 -9.9 -9.999 -99.9 -99.99 -9.99
2020/01/18 20:48 EST   -0.39   0.28    7  177   13  67.3  63.7 1023.2 -9.9 -9.999 -99.9 -99.99 -9.99
2020/01/18 20:54 EST   -0.41   0.22    6  178   10  67.1  63.7 1023.1 -9.9 -9.999 -99.9 -99.99 -9.99
2020/01/18 21:00 EST   -0.41   0.22    7  176   12  67.3  63.7 1022.8 -9.9 -9.999 -99.9 -99.99 -9.99
2020/01/18 21:06 EST   -0.41   0.24    7  182   11  67.1  63.7 1022.9 -9.9 -9.999 -99.9 -99.99 -9.99
2020/01/18 21:12 EST   -0.41   0.26    7  184   12  67.3  63.7 1022.9 -9.9 -9.999 -99.9 -99.99 -9.99
2020/01/18 21:18 EST   -0.40   0.24    6  183   11  67.1  63.9 1022.8 -9.9 -9.999 -99.9 -99.99 -9.99
2020/01/18 21:24 EST   -0.38   0.19    7  186   11  67.1  63.9 1022.8 -9.9 -9.999 -99.9 -99.99 -9.99
2020/01/18 21:30 EST   -0.35   0.20    7  192   10  66.9  63.9 1022.9 -9.9 -9.999 -99.9 -99.99 -9.99
2020/01/18 21:36 EST   -0.32   0.26    8  191   11  66.7  63.9 1022.8 -9.9 -9.999 -99.9 -99.99 -9.99
2020/01/18 21:42 EST   -0.28   0.35    5  198    7  66.4  63.9 1022.9 -9.9 -9.999 -99.9 -99.99 -9.99
2020/01/18 21:48 EST   -0.24   0.44    5  202    7  66.0  63.9 1022.8 -9.9 -9.999 -99.9 -99.99 -9.99
2020/01/18 21:54 EST   -0.19   0.48    5  195    9  65.7  63.9 1022.9 -9.9 -9.999 -99.9 -99.99 -9.99
2020/01/18 22:00 EST   -0.14   0.50    6  191    9  65.7  63.9 1022.8 -9.9 -9.999 -99.9 -99.99 -9.99
2020/01/18 22:06 EST   -0.07   0.52    6  193    9  65.8  63.9 1022.8 -9.9 -9.999 -99.9 -99.99 -9.99
2020/01/18 22:12 EST   -0.01   0.59    5  195    8  65.8  64.0 1022.9 -9.9 -9.999 -99.9 -99.99 -9.99
2020/01/18 22:18 EST    0.06   0.69    7  192    9  65.8  64.0 1022.8 -9.9 -9.999 -99.9 -99.99 -9.99
2020/01/18 22:24 EST    0.14   0.81    6  185    9  65.8  64.0 1022.7 -9.9 -9.999 -99.9 -99.99 -9.99
2020/01/18 22:30 EST    0.22   0.95    6  186    9  65.8  64.0 1022.5 -9.9 -9.999 -99.9 -99.99 -9.99
2020/01/18 22:36 EST    0.31   1.04    7  186    9  66.0  64.0 1022.4 -9.9 -9.999 -99.9 -99.99 -9.99
2020/01/18 22:42 EST    0.40   1.10    7  191   11  66.4  64.0 1022.4 -9.9 -9.999 -99.9 -99.99 -9.99
2020/01/18 22:48 EST    0.49   1.17    6  196   12  66.2  63.9 1022.4 -9.9 -9.999 -99.9 -99.99 -9.99
2020/01/18 22:54 EST    0.58   1.28    6  198    9  66.2  63.9 1022.5 -9.9 -9.999 -99.9 -99.99 -9.99
2020/01/18 23:00 EST    0.68   1.39    5  197    8  65.8  63.9 1022.6 -9.9 -9.999 -99.9 -99.99 -9.99
2020/01/18 23:06 EST    0.78   1.52    4  195    8  65.7  63.9 1022.5 -9.9 -9.999 -99.9 -99.99 -9.99
2020/01/18 23:12 EST    0.89   1.65    6  190    8  65.5  63.9 1022.5 -9.9 -9.999 -99.9 -99.99 -9.99
2020/01/18 23:18 EST    0.99   1.74    6  194    8  65.3  63.9 1022.5 -9.9 -9.999 -99.9 -99.99 -9.99
2020/01/18 23:24 EST    1.10   1.82    6  193    8  65.5  63.9 1022.3 -9.9 -9.999 -99.9 -99.99 -9.99
2020/01/18 23:30 EST    1.20   1.87    6  196    9  65.5  63.9 1022.3 -9.9 -9.999 -99.9 -99.99 -9.99
2020/01/18 23:36 EST    1.31   1.93    6  201   10  65.5  63.9 1022.4 -9.9 -9.999 -99.9 -99.99 -9.99
2020/01/18 23:42 EST    1.42   2.03    7  198   11  65.7  63.9 1022.4 -9.9 -9.999 -99.9 -99.99 -9.99
2020/01/18 23:48 EST    1.52   2.12    6  197   10  65.7  63.9 1022.3 -9.9 -9.999 -99.9 -99.99 -9.99
2020/01/18 23:54 EST    1.63   2.22    6  196    9  65.5  63.9 1022.3 -9.9 -9.999 -99.9 -99.99 -9.99
2020/01/19 00:00 EST    1.74   2.32    6  194   10  65.3  63.9 1022.1 -9.9 -9.999 -99.9 -99.99 -9.99
2020/01/19 00:06 EST    1.85 -99.99 -999 -999 -999 -99.9 -99.9 -999.9 -9.9 -9.999 -99.9 -99.99 -9.99
2020/01/19 00:12 EST    1.95 -99.99 -999 -999 -999 -99.9 -99.9 -999.9 -9.9 -9.999 -99.9 -99.99 -9.99
2020/01/19 00:18 EST    2.06 -99.99 -999 -999 -999 -99.9 -99.9 -999.9 -9.9 -9.999 -99.9 -99.99 -9.99
2020/01/19 00:24 EST    2.17 -99.99 -999 -999 -999 -99.9 -99.9 -999.9 -9.9 -9.999 -99.9 -99.99 -9.99
2020/01/19 00:30 EST    2.27 -99.99 -999 -999 -999 -99.9 -99.9 -999.9 -9.9 -9.999 -99.9 -99.99 -9.99
2020/01/19 00:36 EST    2.37 -99.99 -999 -999 -999 -99.9 -99.9 -999.9 -9.9 -9.999 -99.9 -99.99 -9.99
2020/01/19 00:42 EST    2.48 -99.99 -999 -999 -999 -99.9 -99.9 -999.9 -9.9 -9.999 -99.9 -99.99 -9.99
2020/01/19 00:48 EST    2.58 -99.99 -999 -999 -999 -99.9 -99.9 -999.9 -9.9 -9.999 -99.9 -99.99 -9.99
2020/01/19 00:54 EST    2.68 -99.99 -999 -999 -999 -99.9 -99.9 -999.9 -9.9 -9.999 -99.9 -99.99 -9.99
2020/01/19 01:00 EST    2.77 -99.99 -999 -999 -999 -99.9 -99.9 -999.9 -9.9 -9.999 -99.9 -99.99 -9.99
2020/01/19 01:06 EST    2.87 -99.99 -999 -999 -999 -99.9 -99.9 -999.9 -9.9 -9.999 -99.9 -99.99 -9.99
2020/01/19 01:12 EST    2.97 -99.99 -999 -999 -999 -99.9 -99.9 -999.9 -9.9 -9.999 -99.9 -99.99 -9.99
2020/01/19 01:18 EST    3.06 -99.99 -999 -999 -999 -99.9 -99.9 -999.9 -9.9 -9.999 -99.9 -99.99 -9.99
2020/01/19 01:24 EST    3.15 -99.99 -999 -999 -999 -99.9 -99.9 -999.9 -9.9 -9.999 -99.9 -99.99 -9.99
2020/01/19 01:30 EST    3.24 -99.99 -999 -999 -999 -99.9 -99.9 -999.9 -9.9 -9.999 -99.9 -99.99 -9.99
2020/01/19 01:36 EST    3.32 -99.99 -999 -999 -999 -99.9 -99.9 -999.9 -9.9 -9.999 -99.9 -99.99 -9.99
2020/01/19 01:42 EST    3.41 -99.99 -999 -999 -999 -99.9 -99.9 -999.9 -9.9 -9.999 -99.9 -99.99 -9.99
2020/01/19 01:48 EST    3.49 -99.99 -999 -999 -999 -99.9 -99.9 -999.9 -9.9 -9.999 -99.9 -99.99 -9.99
2020/01/19 01:54 EST    3.57 -99.99 -999 -999 -999 -99.9 -99.9 -999.9 -9.9 -9.999 -99.9 -99.99 -9.99
2020/01/19 02:00 EST    3.65 -99.99 -999 -999 -999 -99.9 -99.9 -999.9 -9.9 -9.999 -99.9 -99.99 -9.99
2020/01/19 02:06 EST    3.72 -99.99 -999 -999 -999 -99.9 -99.9 -999.9 -9.9 -9.999 -99.9 -99.99 -9.99
2020/01/19 02:12 EST    3.79 -99.99 -999 -999 -999 -99.9 -99.9 -999.9 -9.9 -9.999 -99.9 -99.99 -9.99
2020/01/19 02:18 EST    3.86 -99.99 -999 -999 -999 -99.9 -99.9 -999.9 -9.9 -9.999 -99.9 -99.99 -9.99
2020/01/19 02:24 EST    3.93 -99.99 -999 -999 -999 -99.9 -99.9 -999.9 -9.9 -9.999 -99.9 -99.99 -9.99
2020/01/19 02:30 EST    3.99 -99.99 -999 -999 -999 -99.9 -99.9 -999.9 -9.9 -9.999 -99.9 -99.99 -9.99
2020/01/19 02:36 EST    4.05 -99.99 -999 -999 -999 -99.9 -99.9 -999.9 -9.9 -9.999 -99.9 -99.99 -9.99
2020/01/19 02:42 EST    4.10 -99.99 -999 -999 -999 -99.9 -99.9 -999.9 -9.9 -9.999 -99.9 -99.99 -9.99
2020/01/19 02:48 EST    4.16 -99.99 -999 -999 -999 -99.9 -99.9 -999.9 -9.9 -9.999 -99.9 -99.99 -9.99
2020/01/19 02:54 EST    4.21 -99.99 -999 -999 -999 -99.9 -99.9 -999.9 -9.9 -9.999 -99.9 -99.99 -9.99
2020/01/19 03:00 EST    4.25 -99.99 -999 -999 -999 -99.9 -99.9 -999.9 -9.9 -9.999 -99.9 -99.99 -9.99
2020/01/19 03:06 EST    4.29 -99.99 -999 -999 -999 -99.9 -99.9 -999.9 -9.9 -9.999 -99.9 -99.99 -9.99
2020/01/19 03:12 EST    4.33 -99.99 -999 -999 -999 -99.9 -99.9 -999.9 -9.9 -9.999 -99.9 -99.99 -9.99
2020/01/19 03:18 EST    4.36 -99.99 -999 -999 -999 -99.9 -99.9 -999.9 -9.9 -9.999 -99.9 -99.99 -9.99
2020/01/19 03:24 EST    4.39 -99.99 -999 -999 -999 -99.9 -99.9 -999.9 -9.9 -9.999 -99.9 -99.99 -9.99
2020/01/19 03:30 EST    4.42 -99.99 -999 -999 -999 -99.9 -99.9 -999.9 -9.9 -9.999 -99.9 -99.99 -9.99
2020/01/19 03:36 EST    4.44 -99.99 -999 -999 -999 -99.9 -99.9 -999.9 -9.9 -9.999 -99.9 -99.99 -9.99
2020/01/19 03:42 EST    4.45 -99.99 -999 -999 -999 -99.9 -99.9 -999.9 -9.9 -9.999 -99.9 -99.99 -9.99
2020/01/19 03:48 EST    4.46 -99.99 -999 -999 -999 -99.9 -99.9 -999.9 -9.9 -9.999 -99.9 -99.99 -9.99
2020/01/19 03:54 EST    4.47 -99.99 -999 -999 -999 -99.9 -99.9 -999.9 -9.9 -9.999 -99.9 -99.99 -9.99
2020/01/19 04:00 EST    4.47 -99.99 -999 -999 -999 -99.9 -99.9 -999.9 -9.9 -9.999 -99.9 -99.99 -9.99
2020/01/19 04:06 EST    4.47 -99.99 -999 -999 -999 -99.9 -99.9 -999.9 -9.9 -9.999 -99.9 -99.99 -9.99
2020/01/19 04:12 EST    4.46 -99.99 -999 -999 -999 -99.9 -99.9 -999.9 -9.9 -9.999 -99.9 -99.99 -9.99
2020/01/19 04:18 EST    4.44 -99.99 -999 -999 -999 -99.9 -99.9 -999.9 -9.9 -9.999 -99.9 -99.99 -9.99
2020/01/19 04:24 EST    4.42 -99.99 -999 -999 -999 -99.9 -99.9 -999.9 -9.9 -9.999 -99.9 -99.99 -9.99
2020/01/19 04:30 EST    4.39 -99.99 -999 -999 -999 -99.9 -99.9 -999.9 -9.9 -9.999 -99.9 -99.99 -9.99
2020/01/19 04:36 EST    4.35 -99.99 -999 -999 -999 -99.9 -99.9 -999.9 -9.9 -9.999 -99.9 -99.99 -9.99
2020/01/19 04:42 EST    4.31 -99.99 -999 -999 -999 -99.9 -99.9 -999.9 -9.9 -9.999 -99.9 -99.99 -9.99
2020/01/19 04:48 EST    4.26 -99.99 -999 -999 -999 -99.9 -99.9 -999.9 -9.9 -9.999 -99.9 -99.99 -9.99
2020/01/19 04:54 EST    4.21 -99.99 -999 -999 -999 -99.9 -99.9 -999.9 -9.9 -9.999 -99.9 -99.99 -9.99
2020/01/19 05:00 EST    4.15 -99.99 -999 -999 -999 -99.9 -99.9 -999.9 -9.9 -9.999 -99.9 -99.99 -9.99
2020/01/19 05:06 EST    4.09 -99.99 -999 -999 -999 -99.9 -99.9 -999.9 -9.9 -9.999 -99.9 -99.99 -9.99
2020/01/19 05:12 EST    4.01 -99.99 -999 -999 -999 -99.9 -99.9 -999.9 -9.9 -9.999 -99.9 -99.99 -9.99
2020/01/19 05:18 EST    3.94 -99.99 -999 -999 -999 -99.9 -99.9 -999.9 -9.9 -9.999 -99.9 -99.99 -9.99
2020/01/19 05:24 EST    3.85 -99.99 -999 -999 -999 -99.9 -99.9 -999.9 -9.9 -9.999 -99.9 -99.99 -9.99
2020/01/19 05:30 EST    3.76 -99.99 -999 -999 -999 -99.9 -99.9 -999.9 -9.9 -9.999 -99.9 -99.99 -9.99
2020/01/19 05:36 EST    3.67 -99.99 -999 -999 -999 -99.9 -99.9 -999.9 -9.9 -9.999 -99.9 -99.99 -9.99
2020/01/19 05:42 EST    3.57 -99.99 -999 -999 -999 -99.9 -99.9 -999.9 -9.9 -9.999 -99.9 -99.99 -9.99
2020/01/19 05:48 EST    3.47 -99.99 -999 -999 -999 -99.9 -99.9 -999.9 -9.9 -9.999 -99.9 -99.99 -9.99
2020/01/19 05:54 EST    3.36 -99.99 -999 -999 -999 -99.9 -99.9 -999.9 -9.9 -9.999 -99.9 -99.99 -9.99
2020/01/19 06:00 EST    3.25 -99.99 -999 -999 -999 -99.9 -99.9 -999.9 -9.9 -9.999 -99.9 -99.99 -9.99
2020/01/19 06:06 EST    3.14 -99.99 -999 -999 -999 -99.9 -99.9 -999.9 -9.9 -9.999 -99.9 -99.99 -9.99
2020/01/19 06:12 EST    3.02 -99.99 -999 -999 -999 -99.9 -99.9 -999.9 -9.9 -9.999 -99.9 -99.99 -9.99